sensor_id;sensor_type;location;lat;lon;timestamp;temperature;humidity
578;DHT22;275;48.492;9.214;2022-07-05T11:06:58;32.60;10.50
578;DHT22;275;48.492;9.214;2022-07-05T11:12:56;30.70;11.80
578;DHT22;275;48.492;9.214;2022-07-05T11:15:36;29.70;13.40
578;DHT22;275;48.492;9.214;2022-07-05T11:18:22;30.10;13.30
578;DHT22;275;48.492;9.214;2022-07-05T11:20:49;33.90;10.30
578;DHT22;275;48.492;9.214;2022-07-05T11:23:31;37.50;7.30
578;DHT22;275;48.492;9.214;2022-07-05T11:26:06;40.10;4.20
578;DHT22;275;48.492;9.214;2022-07-05T11:28:41;42.20;3.00
578;DHT22;275;48.492;9.214;2022-07-05T11:34:14;43.90;1.50
578;DHT22;275;48.492;9.214;2022-07-05T11:37:17;43.50;1.50
578;DHT22;275;48.492;9.214;2022-07-05T11:39:46;42.30;2.40
578;DHT22;275;48.492;9.214;2022-07-05T11:42:19;40.70;3.70
578;DHT22;275;48.492;9.214;2022-07-05T11:44:49;41.90;2.60
578;DHT22;275;48.492;9.214;2022-07-05T11:47:16;42.80;1.70
578;DHT22;275;48.492;9.214;2022-07-05T11:49:53;41.30;2.80
578;DHT22;275;48.492;9.214;2022-07-05T11:52:24;42.50;2.10
578;DHT22;275;48.492;9.214;2022-07-05T11:54:53;42.90;1.70
578;DHT22;275;48.492;9.214;2022-07-05T11:57:20;41.90;2.20
578;DHT22;275;48.492;9.214;2022-07-05T11:59:47;41.40;2.70
578;DHT22;275;48.492;9.214;2022-07-05T12:02:14;40.70;3.10
578;DHT22;275;48.492;9.214;2022-07-05T12:04:45;41.10;2.40
578;DHT22;275;48.492;9.214;2022-07-05T12:07:24;42.80;1.40
578;DHT22;275;48.492;9.214;2022-07-05T12:09:53;43.80;1.00
578;DHT22;275;48.492;9.214;2022-07-05T12:12:37;43.30;1.30
578;DHT22;275;48.492;9.214;2022-07-05T12:15:11;44.60;1.00
578;DHT22;275;48.492;9.214;2022-07-05T12:17:39;45.50;1.00
578;DHT22;275;48.492;9.214;2022-07-05T12:20:08;45.70;1.00
578;DHT22;275;48.492;9.214;2022-07-05T12:22:38;43.10;1.70
578;DHT22;275;48.492;9.214;2022-07-05T12:25:08;40.90;3.00
578;DHT22;275;48.492;9.214;2022-07-05T12:27:38;40.20;3.70
578;DHT22;275;48.492;9.214;2022-07-05T12:30:06;41.30;3.00
578;DHT22;275;48.492;9.214;2022-07-05T12:32:53;42.50;1.60
578;DHT22;275;48.492;9.214;2022-07-05T12:35:34;41.40;2.00
578;DHT22;275;48.492;9.214;2022-07-05T12:38:03;42.00;2.30
578;DHT22;275;48.492;9.214;2022-07-05T12:40:31;39.30;3.90
578;DHT22;275;48.492;9.214;2022-07-05T12:43:03;38.50;4.50
578;DHT22;275;48.492;9.214;2022-07-05T12:45:30;36.00;6.90
578;DHT22;275;48.492;9.214;2022-07-05T12:47:59;36.00;6.70
578;DHT22;275;48.492;9.214;2022-07-05T12:50:28;35.20;7.30
578;DHT22;275;48.492;9.214;2022-07-05T12:53:02;33.70;8.60
578;DHT22;275;48.492;9.214;2022-07-05T12:55:44;33.20;9.00
578;DHT22;275;48.492;9.214;2022-07-05T12:58:29;32.40;9.20
578;DHT22;275;48.492;9.214;2022-07-05T13:00:57;32.90;9.10
578;DHT22;275;48.492;9.214;2022-07-05T13:03:24;32.50;9.20
578;DHT22;275;48.492;9.214;2022-07-05T13:06:00;32.10;9.70
578;DHT22;275;48.492;9.214;2022-07-05T13:08:29;32.40;9.70
578;DHT22;275;48.492;9.214;2022-07-05T13:10:57;31.70;10.70
578;DHT22;275;48.492;9.214;2022-07-05T13:13:24;31.80;10.40
578;DHT22;275;48.492;9.214;2022-07-05T13:15:51;31.80;10.20
578;DHT22;275;48.492;9.214;2022-07-05T13:18:27;32.20;10.00
578;DHT22;275;48.492;9.214;2022-07-05T13:20:53;32.00;10.20
578;DHT22;275;48.492;9.214;2022-07-05T13:23:20;31.50;10.90
578;DHT22;275;48.492;9.214;2022-07-05T13:25:47;30.70;12.10
578;DHT22;275;48.492;9.214;2022-07-05T13:28:15;30.30;12.40
578;DHT22;275;48.492;9.214;2022-07-05T13:30:42;30.40;12.40
578;DHT22;275;48.492;9.214;2022-07-05T13:33:09;29.80;13.30
578;DHT22;275;48.492;9.214;2022-07-05T13:35:35;30.40;12.90
578;DHT22;275;48.492;9.214;2022-07-05T13:38:02;30.50;12.30
578;DHT22;275;48.492;9.214;2022-07-05T13:40:29;30.60;12.00
578;DHT22;275;48.492;9.214;2022-07-05T13:42:56;30.50;12.60
578;DHT22;275;48.492;9.214;2022-07-05T13:45:24;30.10;12.70
578;DHT22;275;48.492;9.214;2022-07-05T13:47:51;30.10;12.70
578;DHT22;275;48.492;9.214;2022-07-05T13:50:17;30.30;12.60
578;DHT22;275;48.492;9.214;2022-07-05T13:53:01;30.50;12.50
578;DHT22;275;48.492;9.214;2022-07-05T13:55:28;30.60;12.30
578;DHT22;275;48.492;9.214;2022-07-05T13:57:55;31.30;11.70
578;DHT22;275;48.492;9.214;2022-07-05T14:00:24;31.30;12.30
578;DHT22;275;48.492;9.214;2022-07-05T14:02:52;30.90;12.00
578;DHT22;275;48.492;9.214;2022-07-05T14:05:18;30.40;12.70
578;DHT22;275;48.492;9.214;2022-07-05T14:07:46;30.00;13.40
578;DHT22;275;48.492;9.214;2022-07-05T14:10:13;29.60;14.00
578;DHT22;275;48.492;9.214;2022-07-05T14:12:40;29.00;14.40
578;DHT22;275;48.492;9.214;2022-07-05T14:15:08;28.80;14.90
578;DHT22;275;48.492;9.214;2022-07-05T14:17:36;28.90;14.90
578;DHT22;275;48.492;9.214;2022-07-05T14:20:04;29.20;14.20
578;DHT22;275;48.492;9.214;2022-07-05T14:22:31;29.30;14.30
578;DHT22;275;48.492;9.214;2022-07-05T14:24:57;29.40;13.80
578;DHT22;275;48.492;9.214;2022-07-05T14:27:25;29.20;14.70
578;DHT22;275;48.492;9.214;2022-07-05T14:29:51;29.50;14.40
578;DHT22;275;48.492;9.214;2022-07-05T14:32:18;29.40;14.60
578;DHT22;275;48.492;9.214;2022-07-05T14:34:46;29.10;15.00
578;DHT22;275;48.492;9.214;2022-07-05T14:37:13;29.10;14.80
578;DHT22;275;48.492;9.214;2022-07-05T14:39:40;29.20;14.80
578;DHT22;275;48.492;9.214;2022-07-05T14:42:07;29.60;14.30
578;DHT22;275;48.492;9.214;2022-07-05T14:44:34;29.70;14.20
578;DHT22;275;48.492;9.214;2022-07-05T14:47:01;29.60;14.30
578;DHT22;275;48.492;9.214;2022-07-05T14:49:28;29.40;14.60
578;DHT22;275;48.492;9.214;2022-07-05T14:51:56;30.10;13.80
578;DHT22;275;48.492;9.214;2022-07-05T14:54:22;30.00;13.80
578;DHT22;275;48.492;9.214;2022-07-05T14:56:49;29.90;14.30
578;DHT22;275;48.492;9.214;2022-07-05T14:59:16;30.20;13.80
578;DHT22;275;48.492;9.214;2022-07-05T15:01:43;29.60;14.80
578;DHT22;275;48.492;9.214;2022-07-05T15:04:10;29.50;14.60
578;DHT22;275;48.492;9.214;2022-07-05T15:06:36;29.30;15.00
578;DHT22;275;48.492;9.214;2022-07-05T15:09:06;29.40;15.00
578;DHT22;275;48.492;9.214;2022-07-05T15:11:33;29.50;15.00
578;DHT22;275;48.492;9.214;2022-07-05T15:13:59;29.50;14.50
578;DHT22;275;48.492;9.214;2022-07-05T15:16:27;29.70;14.40
578;DHT22;275;48.492;9.214;2022-07-05T15:18:54;29.40;14.60
578;DHT22;275;48.492;9.214;2022-07-05T15:21:21;29.50;14.90
578;DHT22;275;48.492;9.214;2022-07-05T15:23:48;29.60;14.80
578;DHT22;275;48.492;9.214;2022-07-05T15:26:16;29.40;15.20
578;DHT22;275;48.492;9.214;2022-07-05T15:28:43;29.20;15.40
578;DHT22;275;48.492;9.214;2022-07-05T15:31:09;29.40;15.20
578;DHT22;275;48.492;9.214;2022-07-05T15:33:36;29.80;14.70
578;DHT22;275;48.492;9.214;2022-07-05T15:36:03;30.20;14.00
578;DHT22;275;48.492;9.214;2022-07-05T15:38:30;30.50;13.80
578;DHT22;275;48.492;9.214;2022-07-05T15:40:59;30.70;13.90
578;DHT22;275;48.492;9.214;2022-07-05T15:43:27;31.20;13.00
578;DHT22;275;48.492;9.214;2022-07-05T15:45:54;31.10;13.20
578;DHT22;275;48.492;9.214;2022-07-05T15:48:21;30.20;14.70
578;DHT22;275;48.492;9.214;2022-07-05T15:50:48;29.80;15.40
578;DHT22;275;48.492;9.214;2022-07-05T15:53:14;29.50;15.50
578;DHT22;275;48.492;9.214;2022-07-05T15:55:41;28.90;16.30
578;DHT22;275;48.492;9.214;2022-07-05T15:58:08;28.50;16.70
578;DHT22;275;48.492;9.214;2022-07-05T16:00:36;28.70;16.60
578;DHT22;275;48.492;9.214;2022-07-05T16:03:03;29.00;16.20
578;DHT22;275;48.492;9.214;2022-07-05T16:05:29;29.30;15.80
578;DHT22;275;48.492;9.214;2022-07-05T16:07:56;29.60;15.30
578;DHT22;275;48.492;9.214;2022-07-05T16:10:23;30.30;14.80
578;DHT22;275;48.492;9.214;2022-07-05T16:12:51;30.60;14.80
578;DHT22;275;48.492;9.214;2022-07-05T16:15:18;29.90;15.30
578;DHT22;275;48.492;9.214;2022-07-05T16:18:00;29.50;15.70
578;DHT22;275;48.492;9.214;2022-07-05T16:20:27;29.00;16.20
578;DHT22;275;48.492;9.214;2022-07-05T16:22:54;28.90;16.90
578;DHT22;275;48.492;9.214;2022-07-05T16:25:20;29.00;16.40
578;DHT22;275;48.492;9.214;2022-07-05T16:27:47;28.60;17.00
578;DHT22;275;48.492;9.214;2022-07-05T16:30:14;28.60;16.90
578;DHT22;275;48.492;9.214;2022-07-05T16:32:41;28.30;17.00
578;DHT22;275;48.492;9.214;2022-07-05T16:35:09;28.00;17.30
578;DHT22;275;48.492;9.214;2022-07-05T16:37:35;28.20;17.40
578;DHT22;275;48.492;9.214;2022-07-05T16:40:03;29.20;16.20
578;DHT22;275;48.492;9.214;2022-07-05T16:42:30;29.30;15.70
578;DHT22;275;48.492;9.214;2022-07-05T16:44:56;29.10;16.30
578;DHT22;275;48.492;9.214;2022-07-05T16:47:23;29.20;16.20
578;DHT22;275;48.492;9.214;2022-07-05T16:49:51;29.40;15.50
578;DHT22;275;48.492;9.214;2022-07-05T16:52:19;29.30;15.80
578;DHT22;275;48.492;9.214;2022-07-05T16:54:46;28.70;16.40
578;DHT22;275;48.492;9.214;2022-07-05T16:57:13;28.10;17.10
578;DHT22;275;48.492;9.214;2022-07-05T16:59:39;28.50;16.70
578;DHT22;275;48.492;9.214;2022-07-05T17:02:06;28.90;16.00
578;DHT22;275;48.492;9.214;2022-07-05T17:04:35;28.90;15.80
578;DHT22;275;48.492;9.214;2022-07-05T17:07:02;28.50;16.30
578;DHT22;275;48.492;9.214;2022-07-05T17:09:30;28.30;16.70
578;DHT22;275;48.492;9.214;2022-07-05T17:11:57;28.50;16.30
578;DHT22;275;48.492;9.214;2022-07-05T17:14:24;28.40;16.60
578;DHT22;275;48.492;9.214;2022-07-05T17:16:52;28.20;16.60
578;DHT22;275;48.492;9.214;2022-07-05T17:19:19;28.70;16.20
578;DHT22;275;48.492;9.214;2022-07-05T17:21:46;28.90;15.80
578;DHT22;275;48.492;9.214;2022-07-05T17:24:12;28.50;16.00
578;DHT22;275;48.492;9.214;2022-07-05T17:26:41;28.00;16.70
578;DHT22;275;48.492;9.214;2022-07-05T17:29:07;28.10;16.60
578;DHT22;275;48.492;9.214;2022-07-05T17:31:34;28.70;16.50
578;DHT22;275;48.492;9.214;2022-07-05T17:34:01;28.70;15.90
578;DHT22;275;48.492;9.214;2022-07-05T17:36:29;28.60;15.90
578;DHT22;275;48.492;9.214;2022-07-05T17:38:56;28.80;15.10
578;DHT22;275;48.492;9.214;2022-07-05T17:41:22;29.20;15.60
578;DHT22;275;48.492;9.214;2022-07-05T17:43:51;29.00;14.70
578;DHT22;275;48.492;9.214;2022-07-05T17:46:19;28.90;14.70
578;DHT22;275;48.492;9.214;2022-07-05T17:48:47;28.90;14.90
578;DHT22;275;48.492;9.214;2022-07-05T17:51:14;28.90;14.90
578;DHT22;275;48.492;9.214;2022-07-05T17:53:42;28.40;15.70
578;DHT22;275;48.492;9.214;2022-07-05T17:56:10;28.50;14.70
578;DHT22;275;48.492;9.214;2022-07-05T17:58:38;28.50;14.70
578;DHT22;275;48.492;9.214;2022-07-05T18:01:09;28.40;14.90
578;DHT22;275;48.492;9.214;2022-07-05T18:03:36;28.50;14.70
578;DHT22;275;48.492;9.214;2022-07-05T18:06:04;28.60;14.80
578;DHT22;275;48.492;9.214;2022-07-05T18:08:31;28.60;14.80
578;DHT22;275;48.492;9.214;2022-07-05T18:10:57;28.70;14.80
578;DHT22;275;48.492;9.214;2022-07-05T18:13:24;28.60;14.80
578;DHT22;275;48.492;9.214;2022-07-05T18:15:51;28.60;15.00
578;DHT22;275;48.492;9.214;2022-07-05T18:18:20;28.90;14.30
578;DHT22;275;48.492;9.214;2022-07-05T18:20:48;28.70;14.50
578;DHT22;275;48.492;9.214;2022-07-05T18:23:15;28.70;14.70
578;DHT22;275;48.492;9.214;2022-07-05T18:25:42;28.60;14.80
578;DHT22;275;48.492;9.214;2022-07-05T18:28:09;28.50;15.00
578;DHT22;275;48.492;9.214;2022-07-05T18:30:37;28.00;15.50
578;DHT22;275;48.492;9.214;2022-07-05T18:33:05;27.90;15.70
578;DHT22;275;48.492;9.214;2022-07-05T18:35:33;27.80;15.90
578;DHT22;275;48.492;9.214;2022-07-05T18:38:00;27.70;15.40
578;DHT22;275;48.492;9.214;2022-07-05T18:40:27;27.80;15.50
578;DHT22;275;48.492;9.214;2022-07-05T18:42:54;27.50;15.80
578;DHT22;275;48.492;9.214;2022-07-05T18:45:21;27.30;15.70
578;DHT22;275;48.492;9.214;2022-07-05T18:47:48;27.00;16.10
578;DHT22;275;48.492;9.214;2022-07-05T18:50:14;26.90;16.20
578;DHT22;275;48.492;9.214;2022-07-05T18:52:43;27.10;15.90
578;DHT22;275;48.492;9.214;2022-07-05T18:55:09;27.30;15.50
578;DHT22;275;48.492;9.214;2022-07-05T18:57:37;27.40;15.30
578;DHT22;275;48.492;9.214;2022-07-05T19:00:05;27.30;15.70
578;DHT22;275;48.492;9.214;2022-07-05T19:02:32;27.20;15.20
578;DHT22;275;48.492;9.214;2022-07-05T19:05:00;27.00;15.50
578;DHT22;275;48.492;9.214;2022-07-05T19:07:27;27.10;15.50
578;DHT22;275;48.492;9.214;2022-07-05T19:10:12;27.20;15.20
578;DHT22;275;48.492;9.214;2022-07-05T19:12:57;27.10;15.00
578;DHT22;275;48.492;9.214;2022-07-05T19:15:41;27.00;15.30
578;DHT22;275;48.492;9.214;2022-07-05T19:18:08;27.20;15.20
578;DHT22;275;48.492;9.214;2022-07-05T19:20:35;27.20;14.90
578;DHT22;275;48.492;9.214;2022-07-05T19:23:02;27.10;14.80
578;DHT22;275;48.492;9.214;2022-07-05T19:25:32;27.10;15.00
578;DHT22;275;48.492;9.214;2022-07-05T19:28:00;26.90;15.20
578;DHT22;275;48.492;9.214;2022-07-05T19:30:27;26.90;15.20
578;DHT22;275;48.492;9.214;2022-07-05T19:32:54;26.90;15.40
578;DHT22;275;48.492;9.214;2022-07-05T19:35:20;26.80;15.50
578;DHT22;275;48.492;9.214;2022-07-05T19:37:47;26.70;15.80
578;DHT22;275;48.492;9.214;2022-07-05T19:40:14;26.80;15.50
578;DHT22;275;48.492;9.214;2022-07-05T19:42:42;27.00;15.40
578;DHT22;275;48.492;9.214;2022-07-05T19:45:09;27.10;15.20
578;DHT22;275;48.492;9.214;2022-07-05T19:47:37;27.30;15.00
578;DHT22;275;48.492;9.214;2022-07-05T19:50:04;27.10;15.10
578;DHT22;275;48.492;9.214;2022-07-05T19:52:31;27.20;15.10
578;DHT22;275;48.492;9.214;2022-07-05T19:54:58;27.20;15.10
578;DHT22;275;48.492;9.214;2022-07-05T19:57:25;27.10;15.00
578;DHT22;275;48.492;9.214;2022-07-05T19:59:53;27.20;14.80
578;DHT22;275;48.492;9.214;2022-07-05T20:02:19;27.00;16.60
578;DHT22;275;48.492;9.214;2022-07-05T20:04:46;26.30;17.90
578;DHT22;275;48.492;9.214;2022-07-05T20:07:13;25.90;18.50
578;DHT22;275;48.492;9.214;2022-07-05T20:09:40;25.80;18.80
578;DHT22;275;48.492;9.214;2022-07-05T20:12:08;25.80;18.80
578;DHT22;275;48.492;9.214;2022-07-05T20:14:35;25.90;18.80
578;DHT22;275;48.492;9.214;2022-07-05T20:17:04;25.90;18.80
578;DHT22;275;48.492;9.214;2022-07-05T20:19:31;25.70;19.60
578;DHT22;275;48.492;9.214;2022-07-05T20:21:58;25.60;20.10
578;DHT22;275;48.492;9.214;2022-07-05T20:24:25;25.00;21.50
578;DHT22;275;48.492;9.214;2022-07-05T20:26:52;24.90;22.00
578;DHT22;275;48.492;9.214;2022-07-05T20:29:19;24.80;22.40
578;DHT22;275;48.492;9.214;2022-07-05T20:31:51;24.30;23.20
578;DHT22;275;48.492;9.214;2022-07-05T20:34:19;24.00;23.80
578;DHT22;275;48.492;9.214;2022-07-05T20:36:46;23.70;24.40
578;DHT22;275;48.492;9.214;2022-07-05T20:39:12;23.20;25.10
578;DHT22;275;48.492;9.214;2022-07-05T20:41:41;22.80;26.00
578;DHT22;275;48.492;9.214;2022-07-05T20:44:08;22.50;26.60
578;DHT22;275;48.492;9.214;2022-07-05T20:46:35;22.20;26.90
578;DHT22;275;48.492;9.214;2022-07-05T20:49:02;22.10;27.10
578;DHT22;275;48.492;9.214;2022-07-05T20:51:30;22.00;27.10
578;DHT22;275;48.492;9.214;2022-07-05T20:53:57;22.10;26.80
578;DHT22;275;48.492;9.214;2022-07-05T20:56:23;22.00;27.10
578;DHT22;275;48.492;9.214;2022-07-05T20:58:50;21.90;27.20
578;DHT22;275;48.492;9.214;2022-07-05T21:01:17;22.20;26.70
578;DHT22;275;48.492;9.214;2022-07-05T21:03:44;21.90;27.10
578;DHT22;275;48.492;9.214;2022-07-05T21:06:11;22.30;26.40
578;DHT22;275;48.492;9.214;2022-07-05T21:08:39;22.60;25.80
578;DHT22;275;48.492;9.214;2022-07-05T21:11:06;22.20;26.30
578;DHT22;275;48.492;9.214;2022-07-05T21:13:33;22.00;26.50
578;DHT22;275;48.492;9.214;2022-07-05T21:15:59;21.80;26.80
578;DHT22;275;48.492;9.214;2022-07-05T21:18:26;21.90;26.70
578;DHT22;275;48.492;9.214;2022-07-05T21:20:53;22.20;26.20
578;DHT22;275;48.492;9.214;2022-07-05T21:23:20;22.60;25.60
578;DHT22;275;48.492;9.214;2022-07-05T21:25:48;22.60;25.60
578;DHT22;275;48.492;9.214;2022-07-05T21:28:15;22.60;25.50
578;DHT22;275;48.492;9.214;2022-07-05T21:30:42;22.80;25.30
578;DHT22;275;48.492;9.214;2022-07-05T21:33:09;22.50;26.30
578;DHT22;275;48.492;9.214;2022-07-05T21:35:36;21.90;26.30
578;DHT22;275;48.492;9.214;2022-07-05T21:38:03;22.10;26.20
578;DHT22;275;48.492;9.214;2022-07-05T21:40:30;22.30;25.80
578;DHT22;275;48.492;9.214;2022-07-05T21:42:58;22.40;25.60
578;DHT22;275;48.492;9.214;2022-07-05T21:45:24;22.30;25.70
578;DHT22;275;48.492;9.214;2022-07-05T21:47:51;22.30;25.70
578;DHT22;275;48.492;9.214;2022-07-05T21:50:18;22.20;25.70
578;DHT22;275;48.492;9.214;2022-07-05T21:52:45;21.80;26.40
578;DHT22;275;48.492;9.214;2022-07-05T21:55:11;21.40;26.90
578;DHT22;275;48.492;9.214;2022-07-05T21:57:38;21.40;27.00
578;DHT22;275;48.492;9.214;2022-07-05T22:00:17;21.00;27.60
578;DHT22;275;48.492;9.214;2022-07-05T22:03:01;21.10;27.60
578;DHT22;275;48.492;9.214;2022-07-05T22:05:45;21.10;27.50
578;DHT22;275;48.492;9.214;2022-07-05T22:08:12;21.10;27.40
578;DHT22;275;48.492;9.214;2022-07-05T22:10:39;21.40;26.90
578;DHT22;275;48.492;9.214;2022-07-05T22:13:06;21.90;26.40
578;DHT22;275;48.492;9.214;2022-07-05T22:15:34;22.10;26.10
578;DHT22;275;48.492;9.214;2022-07-05T22:18:00;22.10;26.10
578;DHT22;275;48.492;9.214;2022-07-05T22:20:28;22.20;25.80
578;DHT22;275;48.492;9.214;2022-07-05T22:22:55;22.40;25.70
578;DHT22;275;48.492;9.214;2022-07-05T22:25:22;22.70;25.20
578;DHT22;275;48.492;9.214;2022-07-05T22:27:49;22.50;25.60
578;DHT22;275;48.492;9.214;2022-07-05T22:30:16;22.60;25.40
578;DHT22;275;48.492;9.214;2022-07-05T22:32:44;22.40;25.60
578;DHT22;275;48.492;9.214;2022-07-05T22:35:12;22.40;25.20
578;DHT22;275;48.492;9.214;2022-07-05T22:37:39;22.50;25.10
578;DHT22;275;48.492;9.214;2022-07-05T22:40:07;22.60;24.90
578;DHT22;275;48.492;9.214;2022-07-05T22:42:35;22.20;25.60
578;DHT22;275;48.492;9.214;2022-07-05T22:45:02;22.20;25.60
578;DHT22;275;48.492;9.214;2022-07-05T22:47:28;22.50;26.30
578;DHT22;275;48.492;9.214;2022-07-05T22:49:56;22.40;27.20
578;DHT22;275;48.492;9.214;2022-07-05T22:52:23;22.40;27.40
578;DHT22;275;48.492;9.214;2022-07-05T22:54:50;22.40;27.50
578;DHT22;275;48.492;9.214;2022-07-05T22:57:17;22.30;27.50
578;DHT22;275;48.492;9.214;2022-07-05T22:59:43;22.40;27.30
578;DHT22;275;48.492;9.214;2022-07-05T23:02:10;22.40;27.40
578;DHT22;275;48.492;9.214;2022-07-05T23:04:37;22.10;28.10
578;DHT22;275;48.492;9.214;2022-07-05T23:07:05;21.70;28.80
578;DHT22;275;48.492;9.214;2022-07-05T23:09:32;21.70;28.60
578;DHT22;275;48.492;9.214;2022-07-05T23:11:59;21.60;28.40
578;DHT22;275;48.492;9.214;2022-07-05T23:14:25;21.90;28.00
578;DHT22;275;48.492;9.214;2022-07-05T23:16:52;21.90;27.80
578;DHT22;275;48.492;9.214;2022-07-05T23:19:19;21.60;27.90
578;DHT22;275;48.492;9.214;2022-07-05T23:21:46;21.30;28.10
578;DHT22;275;48.492;9.214;2022-07-05T23:24:14;21.60;27.80
578;DHT22;275;48.492;9.214;2022-07-05T23:26:58;21.40;27.90
578;DHT22;275;48.492;9.214;2022-07-05T23:29:25;21.60;27.70
578;DHT22;275;48.492;9.214;2022-07-05T23:31:51;20.90;29.00
578;DHT22;275;48.492;9.214;2022-07-05T23:34:19;20.20;30.00
578;DHT22;275;48.492;9.214;2022-07-05T23:36:46;20.00;30.80
578;DHT22;275;48.492;9.214;2022-07-05T23:39:14;19.70;31.40
578;DHT22;275;48.492;9.214;2022-07-05T23:41:40;20.10;30.60
578;DHT22;275;48.492;9.214;2022-07-05T23:44:07;20.40;30.00
578;DHT22;275;48.492;9.214;2022-07-05T23:46:34;20.70;29.50
578;DHT22;275;48.492;9.214;2022-07-05T23:49:01;20.80;29.10
578;DHT22;275;48.492;9.214;2022-07-05T23:51:28;21.00;28.80
578;DHT22;275;48.492;9.214;2022-07-05T23:53:54;21.20;28.40
578;DHT22;275;48.492;9.214;2022-07-05T23:56:22;21.50;28.00
578;DHT22;275;48.492;9.214;2022-07-05T23:58:49;21.50;28.10
